Riviera Beach, FL (33404)

11:48 AM EDT on September 01, 2015 (GMT -0400)
Gardenia Gardens | | Change Station
CLOSE
Current Station
Personal Weather Station
Location: Palm Beach Gardens, FL
Elevation: 7 ft
Nearby Weather Stations

Elev 7 ft 26.82 °N, 80.10 °W | Updated 9 minutes ago

Partly Cloudy
Partly Cloudy
92.7 °F
Feels Like 110 °F
N
4.2
Wind Variable Wind from NE

Today
High -- | Low -- °F
--% Chance of Precip.
Yesterday
High -- | Low -- °F
Precip. -- in
6:59 AM 7:40 PM
Waning Gibbous, 88% visible
Pressure 30.11 in
Visibility 10.0 miles
Clouds Scattered Clouds 3300 ft
Scattered Clouds 5500 ft
Scattered Clouds 7000 ft
Heat Index 110 °F
Dew Point 79 °F
Humidity 65%
Rainfall 0.00 in
Snow Depth Not available.
UV 8 out of 12
Pollen 4.80 out of 12
Air Quality Not available.
Flu Activity Not available.
METAR KPBI 011453Z 15004KT 10SM SCT033 SCT055 SCT070 30/24 A3011 RMK AO2 RAB02E16 SLP195 P0000 60000 T03000244 51008
Pressure 30.11 in
Visibility 10.0 miles
Clouds Scattered Clouds 3300 ft
Scattered Clouds 5500 ft
Scattered Clouds 7000 ft
Heat Index 110 °F
Dew Point 79 °F
Humidity 65%
Rainfall 0.00 in
Snow Depth Not available.
UV 8 out of 12
Pollen 4.80 out of 12
Air Quality Not available.
Flu Activity Not available.
METAR KPBI 011453Z 15004KT 10SM SCT033 SCT055 SCT070 30/24 A3011 RMK AO2 RAB02E16 SLP195 P0000 60000 T03000244 51008

10-Day Weather Forecast

×

Almanac

Astronomy

Sep. 01, 2015 Rise Set
Actual Time
Civil Twilight
Nautical Twilight
Astronomical Twilight
Moon
Length of Visible Light
Length of Day
Tomorrow will be .
, % of the Moon is Illuminated

Today's Extremes

State Highs State Lows

Community

WunderPhotos

Upload Photos

1,851,538 photos uploaded!

WunderBlogs® & News

Nearby

Air Quality

  Air Quality AQ Index Pollutant
Not available.

Snow Depth

Station Depth Elevation

Earthquake Activity

City Distance Mag. Time & Date
Minimum magnitude displayed is 2.5.

Coastal Water Temperatures

Place Temperature

Stations

Nearby Weather Stations

Station Location Temp. Windchill Dew Point Humidity Wind Precip. Elev Updated Type